Time;durP1;ratioP1;P1;durP2;ratioP2;P2;SDS_P1;SDS_P2;PMS_P1;PMS_P2;Temp;Humidity;BMP_temperature;BMP_pressure;BME280_temperature;BME280_humidity;BME280_pressure;Samples;Min_cycle;Max_cycle;Signal;HPM_P1;HPM_P2
2021/05/15 00:01:48;;;;;;;22.35;17.65;;;;;;;14.22;76.12;99434.84;4974900;28;20028;-86
2021/05/15 00:04:14;;;;;;;25.42;19.02;;;;;;;14.10;77.04;99423.69;4975004;28;20026;-85
2021/05/15 00:06:39;;;;;;;24.58;19.05;;;;;;;13.89;77.65;99430.06;4974390;28;20030;-85
2021/05/15 00:09:05;;;;;;;21.65;18.02;;;;;;;14.14;77.01;99425.03;4974713;28;20037;-85
2021/05/15 00:11:31;;;;;;;25.83;19.33;;;;;;;14.07;77.30;99408.13;4974864;28;20023;-85
2021/05/15 00:13:56;;;;;;;29.60;18.90;;;;;;;14.03;77.13;99404.16;4975067;28;20358;-85
2021/05/15 00:16:21;;;;;;;21.63;17.80;;;;;;;14.04;77.22;99406.63;4974738;28;20429;-85
2021/05/15 00:18:47;;;;;;;26.27;20.10;;;;;;;14.05;77.21;99394.25;4974692;28;20031;-85
2021/05/15 00:21:13;;;;;;;27.55;20.05;;;;;;;14.01;77.38;99393.72;4974513;28;20037;-85
2021/05/15 00:23:38;;;;;;;25.83;19.13;;;;;;;14.06;77.20;99385.38;4974405;28;20062;-85
2021/05/15 00:26:03;;;;;;;22.83;18.58;;;;;;;14.08;76.70;99392.16;4974661;28;20034;-85
2021/05/15 00:28:29;;;;;;;24.80;19.13;;;;;;;14.12;76.79;99379.50;4975575;28;20057;-86
2021/05/15 00:30:56;;;;;;;25.02;19.05;;;;;;;14.15;75.89;99387.09;4956981;28;20030;-85
2021/05/15 00:33:21;;;;;;;25.52;18.88;;;;;;;14.00;77.20;99375.41;4974365;28;20065;-85
2021/05/15 00:35:47;;;;;;;24.05;18.50;;;;;;;13.98;77.03;99372.94;4974407;28;20051;-86
2021/05/15 00:38:12;;;;;;;23.30;18.70;;;;;;;14.00;76.72;99375.41;4973934;28;20042;-85
2021/05/15 00:40:38;;;;;;;25.15;18.02;;;;;;;13.92;77.25;99368.28;4974081;28;20023;-85
2021/05/15 00:43:06;;;;;;;25.95;19.58;;;;;;;13.99;77.36;99366.66;4974163;28;20034;-85
2021/05/15 00:45:31;;;;;;;21.20;17.73;;;;;;;14.05;76.66;99360.78;4974154;28;20019;-85
2021/05/15 00:47:56;;;;;;;19.98;17.77;;;;;;;13.99;76.74;99353.47;4974249;28;20038;-85
2021/05/15 00:50:22;;;;;;;23.17;18.90;;;;;;;13.96;77.08;99345.88;4974219;28;20030;-85
2021/05/15 00:52:47;;;;;;;22.33;19.20;;;;;;;13.92;76.83;99343.66;4974298;28;20038;-85
2021/05/15 00:55:15;;;;;;;21.55;18.55;;;;;;;13.94;76.88;99339.06;4974402;28;20477;-85
2021/05/15 00:57:41;;;;;;;20.45;18.00;;;;;;;13.92;76.75;99338.38;4973969;28;20033;-85
2021/05/15 01:00:09;;;;;;;25.08;18.13;;;;;;;13.93;76.59;99326.88;4974092;28;20022;-86
2021/05/15 01:02:35;;;;;;;21.70;18.23;;;;;;;13.96;76.54;99326.53;4973878;28;20023;-85
2021/05/15 01:05:00;;;;;;;25.08;18.70;;;;;;;13.93;76.45;99317.13;4973872;28;20368;-85
2021/05/15 01:07:26;;;;;;;24.30;18.00;;;;;;;13.86;77.18;99314.28;4973587;28;20039;-85
2021/05/15 01:09:51;;;;;;;23.95;17.92;;;;;;;13.99;76.72;99316.53;4972890;28;20022;-85
2021/05/15 01:12:17;;;;;;;23.65;17.88;;;;;;;13.97;77.04;99317.66;4973312;28;20034;-85
2021/05/15 01:14:42;;;;;;;27.17;18.98;;;;;;;13.97;76.50;99312.38;4973356;28;20019;-85
2021/05/15 01:17:11;;;;;;;21.80;17.63;;;;;;;13.97;76.59;99307.09;4973544;28;20031;-85
2021/05/15 01:19:37;;;;;;;24.15;18.75;;;;;;;13.92;77.46;99304.94;4973531;28;20031;-85
2021/05/15 01:22:13;;;;;;;20.15;17.20;;;;;;;13.84;77.20;99297.78;4973430;28;20039;-85
2021/05/15 01:24:40;;;;;;;22.80;16.63;;;;;;;13.82;77.96;99293.63;4973530;28;20035;-85
2021/05/15 01:27:10;;;;;;;22.33;17.77;;;;;;;13.76;77.87;99281.03;4973670;28;20035;-85
2021/05/15 01:29:36;;;;;;;22.95;17.10;;;;;;;14.02;76.52;99279.28;4973124;28;20030;-85
2021/05/15 01:32:03;;;;;;;18.90;16.83;;;;;;;13.95;77.26;99277.41;4974479;28;20377;-85
2021/05/15 01:34:28;;;;;;;23.77;17.90;;;;;;;13.95;76.65;99272.94;4973230;28;20050;-85
2021/05/15 01:36:54;;;;;;;21.40;16.20;;;;;;;14.09;76.52;99269.75;4973412;28;20473;-85
2021/05/15 01:39:19;;;;;;;24.25;17.17;;;;;;;13.93;77.12;99260.91;4973256;28;20078;-85
2021/05/15 01:41:45;;;;;;;23.17;16.38;;;;;;;13.78;78.29;99266.69;4973014;28;20030;-85
2021/05/15 01:44:11;;;;;;;21.42;17.65;;;;;;;13.88;77.89;99262.19;4973114;28;20026;-85
2021/05/15 01:46:37;;;;;;;19.30;16.45;;;;;;;13.97;78.08;99259.59;4973166;28;20023;-85
2021/05/15 01:49:04;;;;;;;22.23;15.88;;;;;;;13.92;78.10;99259.22;4973685;28;20106;-85
2021/05/15 01:51:29;;;;;;;20.05;15.90;;;;;;;13.92;77.74;99256.59;4972790;28;20085;-85
2021/05/15 01:53:55;;;;;;;16.45;14.70;;;;;;;13.78;78.91;99248.22;4973143;28;20035;-85
2021/05/15 01:56:26;;;;;;;20.35;15.80;;;;;;;13.81;78.49;99241.84;4973111;28;20477;-85
2021/05/15 01:58:52;;;;;;;19.63;15.65;;;;;;;13.76;78.63;99241.47;4973014;28;20039;-85
2021/05/15 02:01:19;;;;;;;21.65;15.05;;;;;;;13.75;79.12;99231.91;4972994;28;20362;-85
2021/05/15 02:03:46;;;;;;;20.77;15.80;;;;;;;13.72;78.90;99233.03;4972654;28;20497;-85
2021/05/15 02:06:11;;;;;;;20.23;15.20;;;;;;;13.78;78.42;99221.84;4973084;28;20386;-85
2021/05/15 02:08:37;;;;;;;17.17;14.55;;;;;;;13.80;79.05;99227.84;4973057;28;20086;-86
2021/05/15 02:11:03;;;;;;;17.25;14.38;;;;;;;13.85;78.26;99225.53;4973142;28;20031;-85
2021/05/15 02:13:30;;;;;;;19.92;14.75;;;;;;;13.69;79.08;99220.16;4973012;28;20027;-85
2021/05/15 02:15:56;;;;;;;17.38;14.02;;;;;;;13.70;78.93;99213.88;4972966;28;20023;-85
2021/05/15 02:18:22;;;;;;;17.90;13.68;;;;;;;13.82;78.87;99209.19;4971880;28;20038;-85
2021/05/15 02:20:49;;;;;;;16.40;12.57;;;;;;;13.67;79.05;99207.13;4972669;28;20504;-85
2021/05/15 02:23:15;;;;;;;17.38;14.02;;;;;;;13.71;79.25;99196.28;4972967;28;20557;-85
2021/05/15 02:25:42;;;;;;;18.95;13.82;;;;;;;13.66;79.95;99194.94;4972961;28;20058;-85
2021/05/15 02:28:08;;;;;;;16.83;13.77;;;;;;;13.69;79.79;99188.50;4970683;28;20043;-85
2021/05/15 02:30:35;;;;;;;18.48;13.40;;;;;;;13.52;80.17;99179.63;4972408;28;20052;-86
2021/05/15 02:33:01;;;;;;;14.07;12.57;;;;;;;13.63;79.79;99175.94;4972823;28;20094;-86
2021/05/15 02:35:27;;;;;;;14.48;12.00;;;;;;;13.69;79.84;99177.94;4972903;28;20019;-86
2021/05/15 02:37:53;;;;;;;20.88;13.98;;;;;;;13.47;80.63;99169.56;4972761;28;20058;-85
2021/05/15 02:40:19;;;;;;;17.20;13.57;;;;;;;13.37;80.93;99162.69;4973915;28;20031;-86
2021/05/15 02:42:45;;;;;;;15.95;13.30;;;;;;;13.37;81.17;99160.91;4959192;28;20122;-86
2021/05/15 02:45:12;;;;;;;16.15;14.07;;;;;;;13.41;80.67;99145.63;4976018;28;20058;-85
2021/05/15 02:47:40;;;;;;;18.42;13.68;;;;;;;13.37;81.08;99147.72;4976297;28;20085;-85
2021/05/15 02:50:11;;;;;;;18.00;15.27;;;;;;;13.32;80.89;99142.06;4976531;28;20023;-85
2021/05/15 02:52:36;;;;;;;18.60;16.02;;;;;;;13.37;81.22;99136.34;4976020;28;20489;-85
2021/05/15 02:55:07;;;;;;;22.33;17.48;;;;;;;13.21;81.78;99137.00;4976149;28;20025;-85
2021/05/15 02:57:33;;;;;;;22.85;16.85;;;;;;;13.32;81.51;99133.34;4958850;28;20500;-85
2021/05/15 02:59:58;;;;;;;18.67;16.55;;;;;;;13.39;81.88;99129.94;4976121;28;20026;-85
2021/05/15 03:02:24;;;;;;;19.30;16.70;;;;;;;13.32;81.67;99128.88;4975949;28;20023;-85
2021/05/15 03:04:49;;;;;;;19.73;15.85;;;;;;;13.47;81.26;99137.91;4975933;28;20053;-85
2021/05/15 03:07:14;;;;;;;24.60;18.63;;;;;;;13.54;81.03;99126.75;4976092;28;20489;-85
2021/05/15 03:09:40;;;;;;;20.95;16.60;;;;;;;13.56;81.27;99128.22;4975996;28;20381;-85
2021/05/15 03:12:05;;;;;;;23.02;18.48;;;;;;;13.45;81.60;99121.41;4975847;28;20031;-85
2021/05/15 03:14:31;;;;;;;22.08;18.42;;;;;;;13.51;81.82;99124.41;4975897;28;20023;-85
2021/05/15 03:16:56;;;;;;;21.85;17.92;;;;;;;13.37;81.61;99113.44;4976022;28;20023;-85
2021/05/15 03:19:21;;;;;;;21.02;17.80;;;;;;;13.49;81.04;99122.75;4975396;28;20496;-85
2021/05/15 03:21:47;;;;;;;19.65;16.60;;;;;;;13.33;81.65;99119.16;4975640;28;20436;-85
2021/05/15 03:24:12;;;;;;;21.25;16.80;;;;;;;13.40;80.91;99109.66;4958432;28;20433;-85
2021/05/15 03:26:38;;;;;;;22.63;18.73;;;;;;;13.43;81.31;99110.19;4975697;28;20046;-84
2021/05/15 03:29:03;;;;;;;23.42;19.13;;;;;;;13.43;80.89;99099.66;4975561;28;20102;-85
2021/05/15 03:31:28;;;;;;;22.80;17.67;;;;;;;13.29;81.68;99093.13;4975592;28;20114;-85
2021/05/15 03:33:54;;;;;;;24.33;19.83;;;;;;;13.31;81.27;99097.41;4975523;28;20377;-85
2021/05/15 03:36:21;;;;;;;20.88;17.90;;;;;;;13.34;81.35;99097.94;4975354;28;20035;-85
2021/05/15 03:38:46;;;;;;;23.35;18.65;;;;;;;13.45;81.43;99087.13;4975480;28;20038;-85
2021/05/15 03:41:12;;;;;;;21.67;17.77;;;;;;;13.45;80.65;99097.69;4975250;28;20027;-85
2021/05/15 03:43:37;;;;;;;27.10;20.38;;;;;;;13.27;81.24;99088.97;4975367;28;20027;-85
2021/05/15 03:46:02;;;;;;;22.75;19.05;;;;;;;13.40;81.23;99078.84;4975232;28;20034;-85
2021/05/15 03:48:28;;;;;;;23.27;19.45;;;;;;;13.37;81.12;99083.59;4975190;28;20023;-85
2021/05/15 03:50:54;;;;;;;22.95;19.10;;;;;;;13.42;81.41;99081.34;4974628;28;20037;-85
2021/05/15 03:53:20;;;;;;;22.02;18.98;;;;;;;13.15;81.96;99075.22;4975127;28;20026;-85
2021/05/15 03:55:46;;;;;;;25.95;20.10;;;;;;;13.31;81.20;99076.31;4975222;28;20481;-85
2021/05/15 03:58:13;;;;;;;25.80;19.88;;;;;;;13.22;81.48;99070.97;4974993;28;20477;-85
2021/05/15 04:00:38;;;;;;;21.63;17.77;;;;;;;13.14;81.90;99060.38;4975176;28;20031;-85
2021/05/15 04:03:04;;;;;;;22.33;19.05;;;;;;;13.20;82.36;99069.47;4974902;28;20025;-85
2021/05/15 04:05:30;;;;;;;23.52;18.08;;;;;;;12.98;81.77;99066.34;4974774;28;20413;-85
2021/05/15 04:07:55;;;;;;;24.17;18.52;;;;;;;13.09;82.37;99060.84;4975023;28;20019;-85
2021/05/15 04:10:21;;;;;;;25.88;19.85;;;;;;;13.12;81.78;99058.88;4975176;28;20385;-85
2021/05/15 04:13:03;;;;;;;22.90;17.90;;;;;;;13.25;81.66;99054.00;4974665;28;20023;-85
2021/05/15 04:18:08;;;;;;;22.35;17.23;;;;;;;13.34;80.98;99049.66;4974756;28;20370;-85
2021/05/15 04:20:35;;;;;;;22.15;17.33;;;;;;;13.19;81.81;99038.81;4974613;28;20027;-85
2021/05/15 04:23:01;;;;;;;23.70;17.65;;;;;;;13.05;82.45;99041.03;4974580;28;20023;-85
2021/05/15 04:25:27;;;;;;;25.38;18.63;;;;;;;13.08;82.42;99038.09;4974156;28;20102;-85
2021/05/15 04:27:53;;;;;;;21.92;16.65;;;;;;;13.22;81.21;99030.59;4974374;28;20114;-85
2021/05/15 04:30:19;;;;;;;27.23;18.05;;;;;;;13.19;81.54;99028.25;4974780;28;20114;-85
2021/05/15 04:32:44;;;;;;;20.30;17.40;;;;;;;13.15;82.48;99021.66;4974219;28;20462;-85
2021/05/15 04:35:10;;;;;;;23.38;16.23;;;;;;;13.15;82.11;99022.50;4974455;28;20031;-85
2021/05/15 04:37:35;;;;;;;20.02;15.35;;;;;;;13.13;81.53;99015.72;4974356;28;20043;-85
2021/05/15 04:40:00;;;;;;;19.15;13.55;;;;;;;12.83;82.36;99021.25;4974412;28;20026;-85
2021/05/15 04:42:26;;;;;;;18.52;14.77;;;;;;;12.87;82.19;99019.16;4974049;28;20022;-85
2021/05/15 04:44:51;;;;;;;20.15;14.45;;;;;;;12.95;82.29;99021.84;4974288;28;20101;-85
2021/05/15 04:47:16;;;;;;;18.98;13.95;;;;;;;13.10;81.95;99020.31;4974278;28;20031;-85
2021/05/15 04:49:42;;;;;;;17.52;13.93;;;;;;;13.09;81.43;99004.66;4974464;28;20031;-85
2021/05/15 04:52:07;;;;;;;18.70;14.75;;;;;;;13.04;81.94;99001.66;4974296;28;20034;-85
2021/05/15 04:54:32;;;;;;;17.13;13.27;;;;;;;13.06;81.39;99012.88;4974119;28;20023;-85
2021/05/15 04:56:58;;;;;;;19.75;13.27;;;;;;;12.97;81.05;98995.34;4973965;28;20051;-85
2021/05/15 04:59:23;;;;;;;16.83;13.45;;;;;;;13.12;81.25;99000.91;4974119;28;20023;-85
2021/05/15 05:01:48;;;;;;;15.82;12.73;;;;;;;13.01;80.74;99005.44;4973879;28;20037;-85
2021/05/15 05:04:14;;;;;;;18.05;13.70;;;;;;;13.05;81.61;99001.53;4973301;28;20031;-84
2021/05/15 05:06:39;;;;;;;17.98;12.70;;;;;;;12.94;82.20;99001.75;4973847;28;20027;-84
2021/05/15 05:09:04;;;;;;;14.88;11.93;;;;;;;13.06;81.40;99005.78;4973864;28;20026;-84
2021/05/15 05:11:30;;;;;;;16.42;11.98;;;;;;;12.96;81.95;99002.44;4973956;28;20125;-84
2021/05/15 05:13:55;;;;;;;15.68;11.80;;;;;;;13.09;81.45;98997.59;4973994;28;20019;-84
2021/05/15 05:16:20;;;;;;;14.63;11.13;;;;;;;13.14;81.20;98998.94;4973444;28;20038;-84
2021/05/15 05:18:46;;;;;;;13.77;11.02;;;;;;;13.25;80.60;98993.38;4973695;28;20476;-84
2021/05/15 05:21:11;;;;;;;18.42;12.57;;;;;;;13.24;81.22;98997.00;4973541;28;20129;-84
2021/05/15 05:23:36;;;;;;;18.52;12.45;;;;;;;12.97;82.33;99006.72;4973758;28;20031;-85
2021/05/15 05:26:02;;;;;;;15.75;11.77;;;;;;;13.09;81.65;99002.00;4973628;28;20086;-84
2021/05/15 05:28:34;;;;;;;12.90;9.88;;;;;;;13.13;81.73;98989.34;4973891;28;20027;-84
2021/05/15 05:31:03;;;;;;;15.02;10.30;;;;;;;13.10;80.93;98995.78;4973429;28;20117;-84
2021/05/15 05:33:28;;;;;;;14.68;10.38;;;;;;;12.90;82.19;98981.97;4973128;28;20023;-85
2021/05/15 05:35:53;;;;;;;18.08;11.63;;;;;;;13.03;82.30;98992.94;4973639;28;20430;-84
2021/05/15 05:38:19;;;;;;;12.52;8.88;;;;;;;12.97;81.45;98993.53;4956151;28;20485;-85
2021/05/15 05:40:44;;;;;;;12.43;8.63;;;;;;;13.18;80.80;98995.00;4973396;28;20033;-84
2021/05/15 05:43:10;;;;;;;10.85;8.70;;;;;;;13.21;81.49;98984.13;4973446;28;20062;-85
2021/05/15 05:45:35;;;;;;;11.40;8.13;;;;;;;13.18;81.10;98992.38;4973265;28;20027;-84
2021/05/15 05:48:00;;;;;;;10.68;7.80;;;;;;;13.17;82.09;98986.28;4972904;28;20485;-85
2021/05/15 05:50:26;;;;;;;9.07;7.68;;;;;;;13.19;81.71;98986.09;4973951;28;20488;-84
2021/05/15 05:52:51;;;;;;;10.80;7.40;;;;;;;13.10;81.82;98986.06;4971547;28;20400;-84
2021/05/15 05:55:17;;;;;;;12.60;6.50;;;;;;;13.04;82.04;98985.84;4973295;28;20027;-85
2021/05/15 05:57:42;;;;;;;8.85;6.28;;;;;;;13.18;81.45;98974.75;4973522;28;20113;-85
2021/05/15 06:00:09;;;;;;;8.52;5.25;;;;;;;13.16;81.44;98974.06;4973213;28;20609;-85
2021/05/15 06:02:34;;;;;;;6.43;4.95;;;;;;;13.30;80.44;98977.97;4973040;28;20022;-84
2021/05/15 06:04:59;;;;;;;5.28;3.80;;;;;;;13.21;81.52;98981.50;4956072;28;20113;-85
2021/05/15 06:07:25;;;;;;;6.88;4.15;;;;;;;13.30;80.92;98975.31;4972555;28;20069;-85
2021/05/15 06:09:51;;;;;;;7.45;4.32;;;;;;;13.43;80.62;98969.63;4973093;28;20507;-85
2021/05/15 06:12:16;;;;;;;5.53;4.00;;;;;;;13.33;80.80;98969.75;4972999;28;20022;-85
2021/05/15 06:14:42;;;;;;;8.05;3.63;;;;;;;13.39;81.06;98971.75;4975100;28;20434;-85
2021/05/15 06:17:07;;;;;;;5.85;3.20;;;;;;;13.48;80.80;98970.78;4977033;28;20023;-85
2021/05/15 06:19:33;;;;;;;5.55;3.08;;;;;;;13.46;80.74;98970.13;4976948;28;20030;-85
2021/05/15 06:21:58;;;;;;;6.57;3.15;;;;;;;13.51;80.29;98963.56;4976696;28;20489;-85
2021/05/15 06:24:25;;;;;;;7.10;3.25;;;;;;;13.45;80.45;98975.59;4976792;28;20023;-85
2021/05/15 06:26:50;;;;;;;4.10;2.70;;;;;;;13.45;78.79;98968.50;4976710;28;20039;-85
2021/05/15 06:29:16;;;;;;;5.07;2.30;;;;;;;13.54;80.11;98971.16;4976821;28;20085;-85
2021/05/15 06:31:41;;;;;;;4.25;2.28;;;;;;;13.47;79.20;98968.34;4976596;28;20050;-85
2021/05/15 06:34:06;;;;;;;4.57;1.73;;;;;;;13.42;79.17;98958.25;4959476;28;20393;-85
2021/05/15 06:36:32;;;;;;;3.03;1.77;;;;;;;13.51;79.41;98966.19;4976134;28;20026;-85
2021/05/15 06:38:57;;;;;;;4.40;1.85;;;;;;;13.34;79.80;98962.66;4975313;28;20034;-85
2021/05/15 06:41:22;;;;;;;3.25;1.83;;;;;;;13.32;79.90;98965.44;4976090;28;20118;-85
2021/05/15 06:43:48;;;;;;;6.68;1.83;;;;;;;13.21;79.12;98958.63;4976066;28;20031;-89
2021/05/15 06:46:13;;;;;;;4.97;2.25;;;;;;;13.48;78.16;98957.59;4976107;28;20054;-88
2021/05/15 06:48:39;;;;;;;6.43;1.90;;;;;;;13.49;78.22;98961.91;4975926;28;20400;-87
2021/05/15 06:51:04;;;;;;;3.80;1.35;;;;;;;13.59;78.63;98967.06;4975553;28;20054;-87
2021/05/15 06:53:30;;;;;;;4.30;1.23;;;;;;;13.52;79.00;98965.22;4958754;28;20034;-87
2021/05/15 06:55:55;;;;;;;2.53;1.45;;;;;;;13.45;79.79;98957.94;4975588;28;20030;-87
2021/05/15 06:58:20;;;;;;;3.10;1.20;;;;;;;13.51;80.07;98956.50;4975721;28;20062;-87
2021/05/15 07:00:46;;;;;;;3.53;1.40;;;;;;;13.37;78.18;98960.53;4975463;28;20366;-87
2021/05/15 07:03:11;;;;;;;3.30;1.27;;;;;;;13.46;78.78;98956.13;4975570;28;20081;-88
2021/05/15 07:05:36;;;;;;;4.50;1.63;;;;;;;13.47;78.84;98955.16;4975400;28;20178;-87
2021/05/15 07:08:02;;;;;;;3.05;1.30;;;;;;;13.53;79.80;98961.63;4975872;28;20130;-87
2021/05/15 07:10:28;;;;;;;3.20;1.30;;;;;;;13.51;80.15;98953.00;4975200;28;20022;-87
2021/05/15 07:12:54;;;;;;;4.88;1.40;;;;;;;13.61;79.56;98959.00;4975370;28;20033;-87
2021/05/15 07:15:20;;;;;;;3.72;1.50;;;;;;;13.53;79.65;98958.97;4974309;28;20038;-87
2021/05/15 07:17:46;;;;;;;5.00;1.42;;;;;;;13.59;79.87;98956.50;4973630;28;20108;-87
2021/05/15 07:20:12;;;;;;;2.95;1.80;;;;;;;13.48;80.12;98951.50;4975450;28;20481;-87
2021/05/15 07:22:40;;;;;;;5.60;1.70;;;;;;;13.67;80.13;98946.00;4958193;28;20039;-87
2021/05/15 07:25:06;;;;;;;3.75;1.20;;;;;;;13.79;80.18;98943.06;4954832;28;20027;-87
2021/05/15 07:27:32;;;;;;;3.30;1.27;;;;;;;13.85;79.65;98937.16;4955715;29;20043;-87
2021/05/15 07:29:57;;;;;;;3.80;1.35;;;;;;;14.00;79.51;98938.16;4965966;28;20038;-87
2021/05/15 07:32:24;;;;;;;3.08;1.10;;;;;;;13.94;80.04;98937.97;4975432;28;20026;-88
2021/05/15 07:34:49;;;;;;;3.30;1.20;;;;;;;14.02;80.22;98935.34;4954754;29;20398;-87
2021/05/15 07:37:15;;;;;;;5.88;1.30;;;;;;;13.97;79.74;98937.66;4971645;28;20029;-87
2021/05/15 07:39:42;;;;;;;1.40;1.00;;;;;;;14.07;79.84;98936.50;4975390;28;20436;-84
2021/05/15 07:42:08;;;;;;;3.95;1.30;;;;;;;13.77;80.68;98937.13;4975167;28;20031;-84
2021/05/15 07:44:33;;;;;;;5.22;1.33;;;;;;;13.91;80.18;98944.41;4974802;28;20102;-84
2021/05/15 07:46:59;;;;;;;4.07;1.10;;;;;;;13.98;80.04;98939.31;4972783;28;20362;-84
2021/05/15 07:49:25;;;;;;;2.63;0.90;;;;;;;13.96;80.53;98938.63;4973268;28;20058;-87
2021/05/15 07:51:52;;;;;;;5.15;1.23;;;;;;;13.84;80.50;98941.59;4973986;28;20085;-87
2021/05/15 07:54:18;;;;;;;3.42;0.80;;;;;;;13.80;80.67;98942.91;4974340;28;20409;-86
2021/05/15 07:56:44;;;;;;;2.65;0.70;;;;;;;13.81;81.12;98944.53;4973798;28;20069;-87
2021/05/15 07:59:09;;;;;;;1.17;0.55;;;;;;;14.04;80.32;98949.19;4973698;28;20035;-86
2021/05/15 08:01:34;;;;;;;2.97;1.08;;;;;;;14.02;80.88;98948.53;4973286;28;20043;-87
2021/05/15 08:04:00;;;;;;;2.70;0.80;;;;;;;13.89;81.02;98936.66;4973682;28;20081;-85
2021/05/15 08:06:26;;;;;;;3.45;0.73;;;;;;;13.92;79.79;98940.81;4973339;28;20033;-86
2021/05/15 08:08:52;;;;;;;1.83;0.60;;;;;;;14.07;80.06;98939.16;4973442;28;20035;-88
2021/05/15 08:11:18;;;;;;;1.35;0.60;;;;;;;14.06;79.62;98936.69;4974133;28;20022;-87
2021/05/15 08:13:44;;;;;;;1.42;0.50;;;;;;;14.13;79.60;98936.88;4973729;28;20050;-87
2021/05/15 08:16:09;;;;;;;1.33;0.60;;;;;;;14.17;79.20;98928.44;4973222;28;20080;-87
2021/05/15 08:18:35;;;;;;;1.70;0.47;;;;;;;14.09;79.51;98937.19;4973464;28;20035;-87
2021/05/15 08:21:01;;;;;;;2.35;0.57;;;;;;;13.99;79.02;98931.22;4973413;28;20059;-87
2021/05/15 08:23:26;;;;;;;0.95;0.40;;;;;;;14.08;79.01;98934.72;4973645;28;20102;-87
2021/05/15 08:25:52;;;;;;;1.35;0.55;;;;;;;14.07;78.78;98936.50;4973201;28;20061;-87
2021/05/15 08:28:17;;;;;;;2.47;0.60;;;;;;;14.10;78.40;98927.47;4955291;28;20030;-87
2021/05/15 08:30:43;;;;;;;3.58;0.60;;;;;;;14.15;79.15;98935.72;4972761;28;20023;-87
2021/05/15 08:33:10;;;;;;;0.55;0.32;;;;;;;14.19;78.94;98944.13;4973663;28;20070;-87
2021/05/15 08:35:36;;;;;;;1.98;0.50;;;;;;;14.03;79.62;98937.00;4973929;28;20516;-87
2021/05/15 08:38:04;;;;;;;1.15;0.60;;;;;;;14.01;78.61;98941.63;4969717;28;20023;-87
2021/05/15 08:40:29;;;;;;;1.90;0.50;;;;;;;13.98;78.36;98934.88;4973203;28;20022;-87
2021/05/15 08:42:55;;;;;;;2.17;0.50;;;;;;;14.11;78.57;98938.84;4973349;28;20045;-87
2021/05/15 08:45:24;;;;;;;1.55;0.50;;;;;;;14.16;78.68;98940.00;4972630;28;20035;-87
2021/05/15 08:47:51;;;;;;;1.17;0.55;;;;;;;14.13;78.31;98945.59;4973000;28;20374;-87
2021/05/15 08:50:20;;;;;;;1.38;0.45;;;;;;;14.15;79.02;98948.09;4973048;28;20081;-87
2021/05/15 08:52:47;;;;;;;0.75;0.47;;;;;;;14.26;78.89;98940.69;4973079;28;20034;-87
2021/05/15 08:55:16;;;;;;;1.98;0.50;;;;;;;14.15;78.57;98940.16;4973351;28;20027;-88
2021/05/15 08:57:41;;;;;;;2.60;0.80;;;;;;;14.23;78.97;98938.34;4972228;28;20058;-87
2021/05/15 09:00:16;;;;;;;1.58;0.70;;;;;;;14.26;79.21;98945.13;4972826;28;20054;-88
2021/05/15 09:02:42;;;;;;;1.60;0.80;;;;;;;14.42;79.09;98939.84;4973065;28;20070;-86
2021/05/15 09:05:09;;;;;;;1.23;0.68;;;;;;;14.62;78.42;98943.00;4975747;28;20034;-86
2021/05/15 09:07:35;;;;;;;2.72;0.50;;;;;;;14.63;77.64;98944.69;4973687;28;20081;-86
2021/05/15 09:10:02;;;;;;;2.85;1.95;;;;;;;14.51;77.18;98945.13;4972336;28;20034;-85
2021/05/15 09:12:27;;;;;;;6.22;4.93;;;;;;;14.60;77.88;98937.06;4946106;28;20121;-86
2021/05/15 09:15:01;;;;;;;21.83;17.33;;;;;;;14.72;76.18;98947.31;4973271;28;20473;-90
2021/05/15 09:17:27;;;;;;;16.40;13.15;;;;;;;14.70;77.59;98944.81;4955194;28;20034;-89
2021/05/15 09:19:53;;;;;;;10.10;8.00;;;;;;;14.79;76.84;98941.19;4972810;28;20041;-88
2021/05/15 09:22:26;;;;;;;14.23;10.90;;;;;;;14.94;76.82;98938.69;4972459;28;20170;-86
2021/05/15 09:24:52;;;;;;;4.88;4.38;;;;;;;15.06;76.61;98942.59;4972775;28;20030;-87
2021/05/15 09:27:19;;;;;;;3.60;2.08;;;;;;;15.14;77.94;98935.66;4961838;28;20030;-87
2021/05/15 09:29:49;;;;;;;1.08;0.55;;;;;;;15.18;76.69;98937.78;4965782;28;20050;-90
2021/05/15 09:32:28;;;;;;;0.77;0.45;;;;;;;15.43;75.72;98935.88;4972328;28;20118;-90
2021/05/15 09:34:53;;;;;;;1.42;0.60;;;;;;;15.61;74.45;98937.47;4972033;28;20101;-89
2021/05/15 09:37:35;;;;;;;1.48;0.50;;;;;;;15.55;73.35;98932.88;4972226;28;20110;-89
2021/05/15 09:40:11;;;;;;;1.50;0.60;;;;;;;15.68;73.96;98938.44;4971558;28;20090;-91
2021/05/15 09:42:48;;;;;;;0.50;0.30;;;;;;;15.68;74.40;98927.84;4972123;28;20069;-91
2021/05/15 09:45:20;;;;;;;2.10;0.73;;;;;;;15.78;73.25;98927.69;4972616;28;20038;-90
2021/05/15 09:47:53;;;;;;;;;;;;;;;15.84;72.74;98932.28;4972880;28;20026;-92
2021/05/15 09:50:18;;;;;;;;;;;;;;;16.08;71.39;98923.34;4952039;28;19921;-91
2021/05/15 09:52:43;;;;;;;2.65;0.70;;;;;;;16.14;70.19;98920.00;4955003;28;19918;-91
2021/05/15 09:55:10;;;;;;;4.32;1.38;;;;;;;16.29;70.04;98916.56;4972534;28;20023;-91
2021/05/15 09:57:36;;;;;;;2.55;1.08;;;;;;;16.56;70.45;98915.19;4971657;28;20054;-90
2021/05/15 10:00:13;;;;;;;4.25;1.80;;;;;;;16.60;70.48;98909.34;4971830;28;20046;-89
2021/05/15 10:02:38;;;;;;;4.50;3.75;;;;;;;16.91;70.61;98904.97;4972120;28;20395;-92
2021/05/15 10:05:11;;;;;;;1.30;0.70;;;;;;;16.87;69.97;98912.44;4971027;28;20592;-95
2021/05/15 10:07:37;;;;;;;1.75;0.40;;;;;;;16.90;70.11;98906.75;4974279;28;20027;-96
2021/05/15 10:10:06;;;;;;;2.30;0.52;;;;;;;16.99;68.52;98918.13;4975513;28;20050;-95
2021/05/15 10:12:33;;;;;;;2.70;1.25;;;;;;;16.88;69.37;98918.56;4957420;28;20037;-95
2021/05/15 10:14:59;;;;;;;4.68;2.92;;;;;;;17.32;65.94;98910.63;4975900;28;20035;-94
2021/05/15 10:17:24;;;;;;;3.35;1.50;;;;;;;17.96;66.38;98911.78;4973802;28;20049;-95
2021/05/15 10:19:50;;;;;;;3.70;0.93;;;;;;;19.53;62.20;98908.03;4974156;28;20035;-96
2021/05/15 10:22:16;;;;;;;4.97;2.13;;;;;;;19.52;59.13;98906.41;4973370;28;20027;-95
2021/05/15 10:24:46;;;;;;;2.10;0.77;;;;;;;19.49;58.69;98906.78;4973464;28;20019;-96
2021/05/15 10:27:14;;;;;;;4.32;0.95;;;;;;;19.29;59.11;98896.84;4973426;28;20508;-94
2021/05/15 10:29:43;;;;;;;3.42;0.73;;;;;;;19.46;58.53;98907.19;4977073;28;20066;-95
2021/05/15 10:32:33;;;;;;;5.88;1.25;;;;;;;19.48;58.45;98899.81;4980459;28;20019;-96
2021/05/15 10:35:03;;;;;;;6.40;1.00;;;;;;;19.79;58.62;98897.50;4977196;28;20035;-95
2021/05/15 10:37:31;;;;;;;5.73;1.33;;;;;;;20.21;57.69;98898.19;4975954;28;20540;-96
2021/05/15 10:39:56;;;;;;;7.70;1.55;;;;;;;21.07;55.33;98899.19;4974006;28;20453;-96
2021/05/15 10:42:30;;;;;;;8.20;2.58;;;;;;;21.34;53.73;98899.09;4973524;28;20058;-96
2021/05/15 10:44:56;;;;;;;5.82;1.67;;;;;;;21.24;51.64;98890.72;4974379;28;20027;-95
2021/05/15 10:47:22;;;;;;;10.98;1.48;;;;;;;21.05;52.11;98890.59;4957106;28;20034;-94
2021/05/15 10:49:49;;;;;;;10.45;2.80;;;;;;;20.94;50.55;98885.88;4983160;28;20504;-94
2021/05/15 10:52:16;;;;;;;8.40;1.80;;;;;;;20.64;53.41;98898.84;4983371;28;20086;-95
2021/05/15 10:54:46;;;;;;;10.30;2.28;;;;;;;21.27;50.01;98888.47;4986874;28;20511;-96
2021/05/15 10:57:21;;;;;;;8.90;1.48;;;;;;;21.60;51.41;98879.50;4983680;28;20027;-96
2021/05/15 10:59:58;;;;;;;18.15;2.60;;;;;;;22.32;50.50;98880.09;4981736;28;20358;-96
2021/05/15 11:02:38;;;;;;;14.68;2.80;;;;;;;22.70;49.71;98870.31;4987614;28;20488;-96
2021/05/15 11:05:12;;;;;;;15.20;2.78;;;;;;;23.76;44.45;98868.28;4998151;28;20086;-96
2021/05/15 11:07:40;;;;;;;11.43;2.55;;;;;;;23.49;42.59;98873.16;4994523;28;20071;-96
2021/05/15 11:10:11;;;;;;;15.52;2.25;;;;;;;23.22;45.34;98865.44;5156012;23;20046;-95
2021/05/15 11:23:14;;;;;;;12.70;2.38;;;;;;;23.49;41.79;98847.19;5104023;23;20056;-96
2021/05/15 11:26:18;;;;;;;13.73;2.97;;;;;;;22.02;45.28;98857.66;4977941;28;20035;-96
2021/05/15 11:41:34;;;;;;;10.70;2.88;;;;;;;22.79;45.98;98860.97;5043405;23;20064;-96
2021/05/15 11:44:00;;;;;;;12.20;2.30;;;;;;;22.39;45.54;98837.25;5355491;23;20277;-96
2021/05/15 11:46:27;;;;;;;15.52;2.67;;;;;;;21.79;46.84;98835.03;5536309;23;20025;-94
2021/05/15 11:48:53;;;;;;;12.60;3.00;;;;;;;21.53;46.83;98838.69;5276209;23;20188;-96